sensor_id;sensor_type;location;lat;lon;timestamp;temperature;humidity
18266;DHT22;9259;48.194;16.322;2023-05-15T00:00:39;11.60;99.90
18266;DHT22;9259;48.194;16.322;2023-05-15T00:03:09;11.60;99.90
18266;DHT22;9259;48.194;16.322;2023-05-15T00:05:37;11.50;99.90
18266;DHT22;9259;48.194;16.322;2023-05-15T00:08:04;11.40;99.90
18266;DHT22;9259;48.194;16.322;2023-05-15T00:10:32;11.50;99.90
18266;DHT22;9259;48.194;16.322;2023-05-15T00:13:00;11.50;99.90
18266;DHT22;9259;48.194;16.322;2023-05-15T00:15:27;11.50;99.90
18266;DHT22;9259;48.194;16.322;2023-05-15T00:17:55;11.40;99.90
18266;DHT22;9259;48.194;16.322;2023-05-15T00:20:23;11.40;99.90
18266;DHT22;9259;48.194;16.322;2023-05-15T00:22:51;11.40;99.90
18266;DHT22;9259;48.194;16.322;2023-05-15T00:25:18;11.40;99.90
18266;DHT22;9259;48.194;16.322;2023-05-15T00:27:46;11.50;99.90
18266;DHT22;9259;48.194;16.322;2023-05-15T00:30:14;11.50;99.90
18266;DHT22;9259;48.194;16.322;2023-05-15T00:32:41;11.50;99.90
18266;DHT22;9259;48.194;16.322;2023-05-15T00:35:09;11.60;99.90
18266;DHT22;9259;48.194;16.322;2023-05-15T00:37:37;11.60;99.90
18266;DHT22;9259;48.194;16.322;2023-05-15T00:40:06;11.60;99.90
18266;DHT22;9259;48.194;16.322;2023-05-15T00:42:35;11.60;99.90
18266;DHT22;9259;48.194;16.322;2023-05-15T00:45:05;11.60;99.90
18266;DHT22;9259;48.194;16.322;2023-05-15T00:47:34;11.50;99.90
18266;DHT22;9259;48.194;16.322;2023-05-15T00:50:02;11.50;99.90
18266;DHT22;9259;48.194;16.322;2023-05-15T00:52:31;11.60;99.90
18266;DHT22;9259;48.194;16.322;2023-05-15T00:55:00;11.60;99.90
18266;DHT22;9259;48.194;16.322;2023-05-15T00:57:28;11.50;99.90
18266;DHT22;9259;48.194;16.322;2023-05-15T00:59:57;11.50;99.90
18266;DHT22;9259;48.194;16.322;2023-05-15T01:02:26;11.50;99.90
18266;DHT22;9259;48.194;16.322;2023-05-15T01:04:53;11.40;99.90
18266;DHT22;9259;48.194;16.322;2023-05-15T01:07:21;11.50;99.90
18266;DHT22;9259;48.194;16.322;2023-05-15T01:09:49;11.50;99.90
18266;DHT22;9259;48.194;16.322;2023-05-15T01:12:22;11.50;99.90
18266;DHT22;9259;48.194;16.322;2023-05-15T01:14:50;11.50;99.90
18266;DHT22;9259;48.194;16.322;2023-05-15T01:17:17;11.50;99.90
18266;DHT22;9259;48.194;16.322;2023-05-15T01:19:46;11.60;99.90
18266;DHT22;9259;48.194;16.322;2023-05-15T01:22:29;11.50;99.90
18266;DHT22;9259;48.194;16.322;2023-05-15T01:28:05;11.50;99.90
18266;DHT22;9259;48.194;16.322;2023-05-15T01:30:37;11.60;99.90
18266;DHT22;9259;48.194;16.322;2023-05-15T01:33:07;11.50;99.90
18266;DHT22;9259;48.194;16.322;2023-05-15T01:35:42;11.50;99.90
18266;DHT22;9259;48.194;16.322;2023-05-15T01:38:15;11.50;99.90
18266;DHT22;9259;48.194;16.322;2023-05-15T01:40:47;11.50;99.90
18266;DHT22;9259;48.194;16.322;2023-05-15T01:43:20;11.40;99.90
18266;DHT22;9259;48.194;16.322;2023-05-15T01:45:48;11.40;99.90
18266;DHT22;9259;48.194;16.322;2023-05-15T01:48:17;11.40;99.90
18266;DHT22;9259;48.194;16.322;2023-05-15T01:50:47;11.40;99.90
18266;DHT22;9259;48.194;16.322;2023-05-15T01:53:18;11.40;99.90
18266;DHT22;9259;48.194;16.322;2023-05-15T01:55:47;11.40;99.90
18266;DHT22;9259;48.194;16.322;2023-05-15T01:58:18;11.40;99.90
18266;DHT22;9259;48.194;16.322;2023-05-15T02:00:47;11.40;99.90
18266;DHT22;9259;48.194;16.322;2023-05-15T02:03:14;11.40;99.90
18266;DHT22;9259;48.194;16.322;2023-05-15T02:05:42;11.40;99.90
18266;DHT22;9259;48.194;16.322;2023-05-15T02:08:11;11.40;99.90
18266;DHT22;9259;48.194;16.322;2023-05-15T02:10:39;11.30;99.90
18266;DHT22;9259;48.194;16.322;2023-05-15T02:13:08;11.30;99.90
18266;DHT22;9259;48.194;16.322;2023-05-15T02:15:37;11.30;99.90
18266;DHT22;9259;48.194;16.322;2023-05-15T02:18:05;11.30;99.90
18266;DHT22;9259;48.194;16.322;2023-05-15T02:20:32;11.30;99.90
18266;DHT22;9259;48.194;16.322;2023-05-15T02:23:00;11.30;99.90
18266;DHT22;9259;48.194;16.322;2023-05-15T02:25:33;11.20;99.90
18266;DHT22;9259;48.194;16.322;2023-05-15T02:28:05;11.20;99.90
18266;DHT22;9259;48.194;16.322;2023-05-15T02:30:39;11.20;99.90
18266;DHT22;9259;48.194;16.322;2023-05-15T02:33:13;11.20;99.90
18266;DHT22;9259;48.194;16.322;2023-05-15T02:35:49;11.20;99.90
18266;DHT22;9259;48.194;16.322;2023-05-15T02:38:23;11.20;99.90
18266;DHT22;9259;48.194;16.322;2023-05-15T02:40:54;11.20;99.90
18266;DHT22;9259;48.194;16.322;2023-05-15T02:43:23;11.10;99.90
18266;DHT22;9259;48.194;16.322;2023-05-15T02:45:53;11.20;99.90
18266;DHT22;9259;48.194;16.322;2023-05-15T02:48:21;11.10;99.90
18266;DHT22;9259;48.194;16.322;2023-05-15T02:50:49;11.10;99.90
18266;DHT22;9259;48.194;16.322;2023-05-15T02:53:17;11.20;99.90
18266;DHT22;9259;48.194;16.322;2023-05-15T02:55:45;11.20;99.90
18266;DHT22;9259;48.194;16.322;2023-05-15T02:58:13;11.20;99.90
18266;DHT22;9259;48.194;16.322;2023-05-15T03:00:41;11.20;99.90
18266;DHT22;9259;48.194;16.322;2023-05-15T03:03:10;11.20;99.90
18266;DHT22;9259;48.194;16.322;2023-05-15T03:05:37;11.30;99.90
18266;DHT22;9259;48.194;16.322;2023-05-15T03:08:05;11.20;99.90
18266;DHT22;9259;48.194;16.322;2023-05-15T03:10:32;11.20;99.90
18266;DHT22;9259;48.194;16.322;2023-05-15T03:13:00;11.20;99.90
18266;DHT22;9259;48.194;16.322;2023-05-15T03:15:28;11.20;99.90
18266;DHT22;9259;48.194;16.322;2023-05-15T03:17:56;11.20;99.90
18266;DHT22;9259;48.194;16.322;2023-05-15T03:20:24;11.10;99.90
18266;DHT22;9259;48.194;16.322;2023-05-15T03:22:52;11.10;99.90
18266;DHT22;9259;48.194;16.322;2023-05-15T03:25:21;11.10;99.90
18266;DHT22;9259;48.194;16.322;2023-05-15T03:27:48;11.10;99.90
18266;DHT22;9259;48.194;16.322;2023-05-15T03:30:16;11.10;99.90
18266;DHT22;9259;48.194;16.322;2023-05-15T03:32:43;11.00;99.90
18266;DHT22;9259;48.194;16.322;2023-05-15T03:35:11;11.00;99.90
18266;DHT22;9259;48.194;16.322;2023-05-15T03:37:39;11.10;99.90
18266;DHT22;9259;48.194;16.322;2023-05-15T03:40:07;11.10;99.90
18266;DHT22;9259;48.194;16.322;2023-05-15T03:42:35;11.10;99.90
18266;DHT22;9259;48.194;16.322;2023-05-15T03:45:03;11.10;99.90
18266;DHT22;9259;48.194;16.322;2023-05-15T03:47:31;11.10;99.90
18266;DHT22;9259;48.194;16.322;2023-05-15T03:49:59;11.20;99.90
18266;DHT22;9259;48.194;16.322;2023-05-15T03:52:26;11.20;99.90
18266;DHT22;9259;48.194;16.322;2023-05-15T03:54:55;11.20;99.90
18266;DHT22;9259;48.194;16.322;2023-05-15T03:57:23;11.20;99.90
18266;DHT22;9259;48.194;16.322;2023-05-15T03:59:50;11.20;99.90
18266;DHT22;9259;48.194;16.322;2023-05-15T04:02:17;11.30;99.90
18266;DHT22;9259;48.194;16.322;2023-05-15T04:04:45;11.30;99.90
18266;DHT22;9259;48.194;16.322;2023-05-15T04:07:12;11.30;99.90
18266;DHT22;9259;48.194;16.322;2023-05-15T04:09:40;11.30;99.90
18266;DHT22;9259;48.194;16.322;2023-05-15T04:12:09;11.30;99.90
18266;DHT22;9259;48.194;16.322;2023-05-15T04:14:36;11.40;99.90
18266;DHT22;9259;48.194;16.322;2023-05-15T04:17:03;11.40;99.90
18266;DHT22;9259;48.194;16.322;2023-05-15T04:19:31;11.40;99.90
18266;DHT22;9259;48.194;16.322;2023-05-15T04:21:58;11.50;99.90
18266;DHT22;9259;48.194;16.322;2023-05-15T04:24:26;11.40;99.90
18266;DHT22;9259;48.194;16.322;2023-05-15T04:26:53;11.40;99.90
18266;DHT22;9259;48.194;16.322;2023-05-15T04:29:22;11.30;99.90
18266;DHT22;9259;48.194;16.322;2023-05-15T04:31:49;11.20;99.90
18266;DHT22;9259;48.194;16.322;2023-05-15T04:34:17;11.20;99.90
18266;DHT22;9259;48.194;16.322;2023-05-15T04:36:44;11.20;99.90
18266;DHT22;9259;48.194;16.322;2023-05-15T04:39:12;11.10;99.90
18266;DHT22;9259;48.194;16.322;2023-05-15T04:41:39;11.10;99.90
18266;DHT22;9259;48.194;16.322;2023-05-15T04:44:07;11.00;99.90
18266;DHT22;9259;48.194;16.322;2023-05-15T04:46:36;11.10;99.90
18266;DHT22;9259;48.194;16.322;2023-05-15T04:49:03;11.10;99.90
18266;DHT22;9259;48.194;16.322;2023-05-15T04:51:31;11.10;99.90
18266;DHT22;9259;48.194;16.322;2023-05-15T04:53:59;11.10;99.90
18266;DHT22;9259;48.194;16.322;2023-05-15T04:56:26;11.10;99.90
18266;DHT22;9259;48.194;16.322;2023-05-15T04:58:53;11.20;99.90
18266;DHT22;9259;48.194;16.322;2023-05-15T05:01:21;11.10;99.90
18266;DHT22;9259;48.194;16.322;2023-05-15T05:03:50;11.00;99.90
18266;DHT22;9259;48.194;16.322;2023-05-15T05:06:17;11.10;99.90
18266;DHT22;9259;48.194;16.322;2023-05-15T05:08:44;11.10;99.90
18266;DHT22;9259;48.194;16.322;2023-05-15T05:11:12;11.30;99.90
18266;DHT22;9259;48.194;16.322;2023-05-15T05:13:39;11.30;99.90
18266;DHT22;9259;48.194;16.322;2023-05-15T05:16:07;11.50;99.90
18266;DHT22;9259;48.194;16.322;2023-05-15T05:18:35;11.60;99.90
18266;DHT22;9259;48.194;16.322;2023-05-15T05:21:04;11.60;99.90
18266;DHT22;9259;48.194;16.322;2023-05-15T05:23:31;11.70;99.90
18266;DHT22;9259;48.194;16.322;2023-05-15T05:25:59;11.70;99.90
18266;DHT22;9259;48.194;16.322;2023-05-15T05:28:26;11.60;99.90
18266;DHT22;9259;48.194;16.322;2023-05-15T05:30:54;11.60;99.90
18266;DHT22;9259;48.194;16.322;2023-05-15T05:33:21;11.70;99.90
18266;DHT22;9259;48.194;16.322;2023-05-15T05:35:49;11.70;99.90
18266;DHT22;9259;48.194;16.322;2023-05-15T05:38:18;11.60;99.90
18266;DHT22;9259;48.194;16.322;2023-05-15T05:40:45;11.70;99.90
18266;DHT22;9259;48.194;16.322;2023-05-15T05:43:13;11.80;99.90
18266;DHT22;9259;48.194;16.322;2023-05-15T05:45:40;12.00;99.90
18266;DHT22;9259;48.194;16.322;2023-05-15T05:48:07;12.20;99.90
18266;DHT22;9259;48.194;16.322;2023-05-15T05:50:35;12.40;99.90
18266;DHT22;9259;48.194;16.322;2023-05-15T05:53:02;12.60;99.90
18266;DHT22;9259;48.194;16.322;2023-05-15T05:55:31;12.60;99.90
18266;DHT22;9259;48.194;16.322;2023-05-15T05:57:59;12.60;99.90
18266;DHT22;9259;48.194;16.322;2023-05-15T06:00:26;12.90;99.90
18266;DHT22;9259;48.194;16.322;2023-05-15T06:02:56;13.00;99.90
18266;DHT22;9259;48.194;16.322;2023-05-15T06:05:23;12.80;99.90
18266;DHT22;9259;48.194;16.322;2023-05-15T06:07:51;12.70;99.90
18266;DHT22;9259;48.194;16.322;2023-05-15T06:10:19;12.40;99.90
18266;DHT22;9259;48.194;16.322;2023-05-15T06:12:49;12.30;99.90
18266;DHT22;9259;48.194;16.322;2023-05-15T06:15:16;12.10;99.90
18266;DHT22;9259;48.194;16.322;2023-05-15T06:17:43;12.00;99.90
18266;DHT22;9259;48.194;16.322;2023-05-15T06:20:11;12.00;99.90
18266;DHT22;9259;48.194;16.322;2023-05-15T06:22:39;11.80;99.90
18266;DHT22;9259;48.194;16.322;2023-05-15T06:25:07;11.70;99.90
18266;DHT22;9259;48.194;16.322;2023-05-15T06:27:39;11.70;99.90
18266;DHT22;9259;48.194;16.322;2023-05-15T06:30:10;11.80;99.90
18266;DHT22;9259;48.194;16.322;2023-05-15T06:32:38;11.80;99.90
18266;DHT22;9259;48.194;16.322;2023-05-15T06:35:07;11.80;99.90
18266;DHT22;9259;48.194;16.322;2023-05-15T06:37:35;11.90;99.90
18266;DHT22;9259;48.194;16.322;2023-05-15T06:40:04;11.90;99.90
18266;DHT22;9259;48.194;16.322;2023-05-15T06:42:32;11.80;99.90
18266;DHT22;9259;48.194;16.322;2023-05-15T06:44:59;11.70;99.90
18266;DHT22;9259;48.194;16.322;2023-05-15T06:47:28;11.70;99.90
18266;DHT22;9259;48.194;16.322;2023-05-15T06:49:55;11.90;99.90
18266;DHT22;9259;48.194;16.322;2023-05-15T06:52:23;11.80;99.90
18266;DHT22;9259;48.194;16.322;2023-05-15T06:54:50;11.80;99.90
18266;DHT22;9259;48.194;16.322;2023-05-15T06:57:18;11.80;99.90
18266;DHT22;9259;48.194;16.322;2023-05-15T06:59:45;12.00;99.90
18266;DHT22;9259;48.194;16.322;2023-05-15T07:02:13;12.20;99.90
18266;DHT22;9259;48.194;16.322;2023-05-15T07:04:42;12.20;99.90
18266;DHT22;9259;48.194;16.322;2023-05-15T07:07:09;12.50;99.90
18266;DHT22;9259;48.194;16.322;2023-05-15T07:09:37;12.70;99.90
18266;DHT22;9259;48.194;16.322;2023-05-15T07:12:04;12.90;99.90
18266;DHT22;9259;48.194;16.322;2023-05-15T07:14:33;13.20;99.90
18266;DHT22;9259;48.194;16.322;2023-05-15T07:17:01;13.40;99.90
18266;DHT22;9259;48.194;16.322;2023-05-15T07:19:28;13.60;99.90
18266;DHT22;9259;48.194;16.322;2023-05-15T07:21:57;13.80;99.90
18266;DHT22;9259;48.194;16.322;2023-05-15T07:24:24;14.10;99.90
18266;DHT22;9259;48.194;16.322;2023-05-15T07:26:52;13.90;99.90
18266;DHT22;9259;48.194;16.322;2023-05-15T07:29:21;14.00;99.90
18266;DHT22;9259;48.194;16.322;2023-05-15T07:31:49;14.20;99.90
18266;DHT22;9259;48.194;16.322;2023-05-15T07:34:16;14.30;99.90
18266;DHT22;9259;48.194;16.322;2023-05-15T07:36:44;14.40;99.90
18266;DHT22;9259;48.194;16.322;2023-05-15T07:39:12;14.40;99.90
18266;DHT22;9259;48.194;16.322;2023-05-15T07:41:40;14.40;99.90
18266;DHT22;9259;48.194;16.322;2023-05-15T07:44:08;14.20;99.90
18266;DHT22;9259;48.194;16.322;2023-05-15T07:46:35;14.10;99.90
18266;DHT22;9259;48.194;16.322;2023-05-15T07:49:03;14.00;99.90
18266;DHT22;9259;48.194;16.322;2023-05-15T07:51:31;14.10;99.90
18266;DHT22;9259;48.194;16.322;2023-05-15T07:53:58;14.00;99.90
18266;DHT22;9259;48.194;16.322;2023-05-15T07:56:27;14.00;99.90
18266;DHT22;9259;48.194;16.322;2023-05-15T07:58:55;14.10;99.90
18266;DHT22;9259;48.194;16.322;2023-05-15T08:01:23;14.00;99.90
18266;DHT22;9259;48.194;16.322;2023-05-15T08:03:50;14.10;99.90
18266;DHT22;9259;48.194;16.322;2023-05-15T08:06:18;14.30;99.90
18266;DHT22;9259;48.194;16.322;2023-05-15T08:08:45;14.40;99.90
18266;DHT22;9259;48.194;16.322;2023-05-15T08:11:13;14.50;99.90
18266;DHT22;9259;48.194;16.322;2023-05-15T08:13:41;14.20;99.90
18266;DHT22;9259;48.194;16.322;2023-05-15T08:16:09;13.90;99.90
18266;DHT22;9259;48.194;16.322;2023-05-15T08:18:36;14.10;99.90
18266;DHT22;9259;48.194;16.322;2023-05-15T08:21:04;14.70;99.90
18266;DHT22;9259;48.194;16.322;2023-05-15T08:23:31;15.30;99.90
18266;DHT22;9259;48.194;16.322;2023-05-15T08:25:58;15.80;99.90
18266;DHT22;9259;48.194;16.322;2023-05-15T08:28:26;16.00;99.90
18266;DHT22;9259;48.194;16.322;2023-05-15T08:30:55;16.60;99.90
18266;DHT22;9259;48.194;16.322;2023-05-15T08:33:22;16.80;99.90
18266;DHT22;9259;48.194;16.322;2023-05-15T08:35:49;16.40;99.90
18266;DHT22;9259;48.194;16.322;2023-05-15T08:38:17;16.10;99.90
18266;DHT22;9259;48.194;16.322;2023-05-15T09:35:28;16.70;99.90
